• Join FlightAware (Why Join?)
  • Login
  • US Flag 
07:42AM EDT


 

Airport Tracker/Info


-or-


 

Live Flight TrackerFlight Track Log ✈ UAL1071 ✈ 29-Oct-2013 ✈ KSAN - KORD

Flight Track Log - Related Links

Times and Time Zones

All times are in EDT time to prevent confusion due to time zone crossing. See the UAL1071 flight status page for this flight to view local times or setup timezone preferences in your user account.

Time Position Orientation Groundspeed Altitude Reporting Facility
EDT Latitude Longitude Course Direction KTS MPH feet Rate Location/Type
09:40AM 32.7500 -117.2333 12° North 163 188 1,600  Level Southern California TRACON
09:41AM 32.7500 -117.2833 270° West 194 223 4,700 2,820 Climbing Southern California TRACON
09:42AM 32.6985 -116.7339 19° North  Level FlightAware Approximate
09:42AM 32.7167 -117.3167 220° Southwest 252 290 7,300  Level Southern California TRACON
09:43AM 32.8231 -116.6815 13° North  Level FlightAware Approximate
09:43AM 32.6542 -117.2572 141° Southeast 268 308 10,000  Level Los Angeles Center
09:44AM 32.9518 -116.6439 16° North  Level FlightAware Approximate
09:44AM 32.6358 -117.1472 101° East 329 379 12,200  Level Los Angeles Center
09:45AM 33.0781 -116.5972 12° North  Level FlightAware Approximate
09:45AM 32.6142 -116.9964 100° East 378 435 15,600  Level Los Angeles Center
09:46AM 32.6214 -116.8592 86° East 415 478 18,300 1,980 Climbing Los Angeles Center
09:47AM 32.6900 -116.7492 53° Northeast 437 503 19,700 1,500 Climbing Los Angeles Center
09:48AM 32.8100 -116.7069 16° North 445 512 21,400 1,740 Climbing Los Angeles Center
09:49AM 32.9386 -116.6597 17° North 467 537 23,300 1,920 Climbing Los Angeles Center
09:50AM 33.0656 -116.5864 26° Northeast 499 574 25,400 1,800 Climbing Los Angeles Center
09:51AM 33.1892 -116.4917 33° Northeast 517 595 27,000 720 Climbing Los Angeles Center
09:52AM 33.3150 -116.3972 32° Northeast 528 608 26,900 240 Descending Los Angeles Center
09:53AM 33.4408 -116.3031 32° Northeast 530 610 27,500 1,080 Climbing Los Angeles Center
09:54AM 33.5681 -116.2058 32° Northeast 536 617 29,200 1,260 Climbing Los Angeles Center
09:55AM 33.6953 -116.1064 33° Northeast 543 625 30,100 780 Climbing Los Angeles Center
09:56AM 33.8236 -116.0017 34° Northeast 553 636 30,900 420 Climbing Los Angeles Center
09:57AM 33.9517 -115.8997 33° Northeast 552 635 31,000  Climbing Los Angeles Center
09:58AM 34.1050 -115.7744 34° Northeast 555 639 31,000 -60 Level Los Angeles Center
09:59AM 34.2222 -115.6492 41° Northeast 559 643 30,900  Descending Los Angeles Center
10:00AM 34.3425 -115.5267 40° Northeast 565 650 31,000  Climbing Los Angeles Center
10:01AM 34.4872 -115.4644 20° North 553 636 31,000  Level Los Angeles Center
10:02AM 34.6331 -115.4075 18° North 552 635 31,000  Level Los Angeles Center
10:03AM 34.7978 -115.3422 18° North 552 635 31,000  Level Los Angeles Center
10:04AM 34.9411 -115.2883 17° North 550 633 31,000  Level Los Angeles Center
10:05AM 35.0875 -115.2272 19° North 550 633 31,000  Level Los Angeles Center
10:06AM 35.2308 -115.1719 17° North 544 626 31,000  Level Los Angeles Center
10:07AM 35.3731 -115.1161 18° North 539 620 31,000 660 Level Los Angeles Center
10:08AM 35.5164 -115.0581 18° North 541 623 32,400 1,560 Climbing Los Angeles Center
10:09AM 35.6578 -115.0000 18° North 540 621 34,200 1,440 Climbing Los Angeles Center
10:10AM 35.7978 -114.9425 18° North 535 616 35,400 1,200 Climbing Los Angeles Center
10:11AM 35.9653 -114.8736 18° North 532 612 36,900 660 Climbing Los Angeles Center
10:12AM 36.0919 -114.7214 44° Northeast 540 621 37,000  Climbing Los Angeles Center
10:14AM 36.1875 -114.5808 50° Northeast 537 618 37,000  Level Los Angeles Center
10:15AM 36.2844 -114.4392 50° Northeast 540 621 37,000  Level Los Angeles Center
10:16AM 36.3808 -114.2978 50° Northeast 539 620 37,000  Level Los Angeles Center
10:17AM 36.4758 -114.1544 50° Northeast 539 620 37,000  Level Los Angeles Center
10:18AM 36.5833 -113.9969 50° Northeast 536 617 37,000  Level Los Angeles Center
10:19AM 36.6786 -113.8533 50° Northeast 537 618 37,000  Level Los Angeles Center
10:20AM 36.7736 -113.7111 50° Northeast 536 617 37,000  Level Los Angeles Center
10:21AM 36.8706 -113.5672 50° Northeast 541 623 37,000  Level Los Angeles Center
10:22AM 36.9642 -113.4231 51° Northeast 538 619 37,000  Level Los Angeles Center
10:23AM 37.0783 -113.2489 51° Northeast 541 623 37,000  Level Los Angeles Center
10:24AM 37.1733 -113.1033 51° Northeast 542 624 37,000  Level Los Angeles Center
10:25AM 37.2681 -112.9569 51° Northeast 544 626 37,000  Level Los Angeles Center
10:26AM 37.3622 -112.8119 51° Northeast 544 626 37,000  Level Los Angeles Center
10:27AM 37.4564 -112.6664 51° Northeast 548 631 37,000  Level Los Angeles Center
10:28AM 37.5692 -112.4911 51° Northeast 548 631 37,000  Level Los Angeles Center
10:29AM 37.6836 -112.3136 51° Northeast 550 633 37,000  Level Salt Lake Center
10:30AM 37.7736 -112.1592 54° Northeast 549 632 37,000  Level Salt Lake Center
10:31AM 37.8628 -112.0047 54° Northeast 547 629 37,000  Level Salt Lake Center
10:32AM 37.9528 -111.8503 54° Northeast 547 629 37,000  Level Salt Lake Center
10:33AM 38.0411 -111.6947 54° Northeast 545 627 37,000  Level Salt Lake Center
10:34AM 38.1289 -111.5389 54° Northeast 545 627 37,000  Level Salt Lake Center
10:35AM 38.2175 -111.3850 54° Northeast 542 624 37,000  Level Salt Lake Center
10:36AM 38.3042 -111.2286 55° Northeast 542 624 37,000  Level Salt Lake Center
10:37AM 38.4092 -111.0419 54° Northeast 542 624 37,000  Level Salt Lake Center
10:38AM 38.4933 -110.8942 54° Northeast 541 623 37,000  Level Salt Lake Center
10:39AM 38.5756 -110.7433 55° Northeast 541 623 37,000  Level Salt Lake Center
10:40AM 38.6725 -110.5686 55° Northeast 540 621 37,000  Level Salt Lake Center
10:41AM 38.7550 -110.4186 55° Northeast 539 620 37,000  Level Salt Lake Center
10:42AM 38.8508 -110.2422 55° Northeast 539 620 37,000  Level Salt Lake Center
10:43AM 38.9333 -110.0922 55° Northeast 538 619 37,000  Level Salt Lake Center
10:44AM 39.0283 -109.9147 55° Northeast 539 620 37,000  Level Salt Lake Center
10:45AM 39.1094 -109.7642 55° Northeast 537 618 37,000  Level Salt Lake Center
10:46AM 39.1911 -109.6125 55° Northeast 538 619 37,000  Level Salt Lake Center
10:48AM 39.2850 -109.4339 56° Northeast 538 619 37,000  Level Salt Lake Center
10:49AM 39.3661 -109.2811 55° Northeast 539 620 37,000  Level Salt Lake Center
10:50AM 39.4608 -109.1006 56° Northeast 542 624 37,000  Level Salt Lake Center
10:51AM 39.5422 -108.9461 56° Northeast 543 625 37,000  Level Salt Lake Center
10:52AM 39.6356 -108.7675 56° Northeast 542 624 37,000  Level Salt Lake Center
10:53AM 39.7250 -108.5936 56° Northeast 548 631 37,000  Level Salt Lake Center
10:54AM 39.8056 -108.4375 56° Northeast 546 628 37,000  Level Salt Lake Center
10:55AM 39.8867 -108.2806 56° Northeast 546 628 37,000  Level Salt Lake Center
10:56AM 39.9808 -108.0967 56° Northeast 547 629 37,000  Level Salt Lake Center
10:57AM 40.0611 -107.9367 57° Northeast 549 632 37,000  Level Salt Lake Center
10:58AM 40.1825 -107.6608 60° Northeast 552 635 37,000  Level Denver Center
10:59AM 40.2558 -107.4967 60° Northeast 547 629 37,000  Level Denver Center
11:00AM 40.3272 -107.3325 60° Northeast 544 626 37,000  Level Denver Center
11:01AM 40.4081 -107.1428 61° Northeast 535 616 37,000  Level Denver Center
11:02AM 40.4775 -106.9811 61° Northeast 532 612 37,000  Level Denver Center
11:03AM 40.5517 -106.8125 60° Northeast 529 609 37,000  Level Denver Center
11:04AM 40.6236 -106.6425 61° Northeast 528 608 37,000  Level Denver Center
11:06AM 40.7058 -106.4450 61° Northeast 525 604 37,000  Level Denver Center
11:07AM 40.7753 -106.2783 61° Northeast 527 606 37,000  Level Denver Center
11:08AM 40.8531 -106.0994 60° Northeast 536 617 37,000  Level Denver Center
11:09AM 40.9264 -105.9261 61° Northeast 538 619 37,000  Level Denver Center
11:10AM 41.0019 -105.7319 63° Northeast 544 626 37,000  Level Denver Center
11:11AM 41.0717 -105.5653 61° Northeast 543 625 37,000  Level Denver Center
11:12AM 41.1517 -105.3692 62° Northeast 545 627 37,000  Level Denver Center
11:13AM 41.2197 -105.1981 62° Northeast 548 631 37,000  Level Denver Center
11:14AM 41.3011 -104.9986 61° Northeast 551 634 37,000  Level Denver Center
11:15AM 41.3694 -104.8261 62° Northeast 554 638 37,000  Level Denver Center
11:16AM 41.4494 -104.6244 62° Northeast 554 638 37,000  Level Denver Center
11:17AM 41.5167 -104.4547 62° Northeast 548 631 37,000  Level Denver Center
11:18AM 41.5950 -104.2544 62° Northeast 548 631 37,000  Level Denver Center
11:19AM 41.6619 -104.0839 62° Northeast 545 627 37,000  Level Denver Center
11:20AM 41.7308 -103.8817 65° Northeast 540 621 37,000  Level Denver Center
11:21AM 41.7983 -103.7119 62° Northeast 541 623 37,000  Level Denver Center
11:22AM 41.8786 -103.5142 61° Northeast 542 624 37,000  Level Denver Center
11:23AM 41.9167 -103.3283 75° East 548 631 37,000  Level Denver Center
11:24AM 41.9464 -103.1097 80° East 539 620 37,000  Level Denver Center
11:25AM 41.9725 -102.9214 79° East 539 620 37,000  Level Denver Center
11:26AM 42.0028 -102.6989 80° East 544 626 37,000  Level Denver Center
11:27AM 42.0286 -102.5069 80° East 547 629 37,000  Level Denver Center
11:28AM 42.0572 -102.2833 80° East 545 627 37,000  Level Denver Center
11:29AM 42.0856 -102.0683 80° East 551 634 37,000  Level Denver Center
11:30AM 42.1106 -101.8717 80° East 555 639 37,000  Level Denver Center
11:31AM 42.1392 -101.6433 80° East 553 636 37,000  Level Denver Center
11:32AM 42.1647 -101.4472 80° East 552 635 37,000  Level Denver Center
11:33AM 42.1917 -101.2200 81° East 550 633 37,000  Level Denver Center
11:34AM 42.2158 -101.0228 81° East 554 638 37,000  Level Denver Center
11:35AM 42.2394 -100.8292 81° East 548 631 37,000  Level Denver Center
11:37AM 42.2656 -100.5997 81° East 551 634 37,000  Level Denver Center
11:38AM 42.2881 -100.4064 81° East 547 629 37,000  Level Denver Center
11:39AM 42.3142 -100.1789 81° East 547 629 37,000  Level Denver Center
11:40AM 42.3386 -99.9461 82° East 546 628 37,000  Level Minneapolis Center
11:41AM 42.3592 -99.7578 82° East 545 627 37,000  Level Denver Center
11:42AM 42.3786 -99.5803 82° East 543 625 37,000  Level Denver Center
11:43AM 42.4042 -99.3400 82° East 539 620 37,000  Level Denver Center
11:44AM 42.4253 -99.1372 82° East 540 621 37,000  Level Denver Center
11:45AM 42.4450 -98.9328 82° East 543 625 37,000  Level Denver Center
11:46AM 42.4661 -98.7289 82° East 544 626 37,000  Level Denver Center
11:47AM 42.4808 -98.4864 85° East 543 625 37,000  Level Minneapolis Center
11:48AM 42.4872 -98.2808 88° East 544 626 37,000  Level Minneapolis Center
11:49AM 42.4942 -98.0769 87° East 542 624 37,000  Level Minneapolis Center
11:50AM 42.4992 -97.8697 88° East 547 629 37,000  Level Minneapolis Center
11:51AM 42.5058 -97.6533 88° East 546 628 37,000  Level Minneapolis Center
11:52AM 42.5114 -97.4464 88° East 548 631 37,000  Level Minneapolis Center
11:53AM 42.5161 -97.2428 88° East 542 624 37,000  Level Minneapolis Center
11:54AM 42.5208 -97.0389 88° East 541 623 37,000  Level Minneapolis Center
11:55AM 42.5256 -96.8339 88° East 542 624 37,000  Level Minneapolis Center
11:56AM 42.5300 -96.6272 88° East 546 628 37,000  Level Minneapolis Center
11:57AM 42.5339 -96.3797 89° East 547 629 37,000  Level Minneapolis Center
11:58AM 42.5372 -96.1731 89° East 547 629 37,000  Level Minneapolis Center
11:59AM 42.5400 -95.9669 89° East 545 627 37,000  Level Minneapolis Center
12:00PM 42.5431 -95.7600 89° East 548 631 37,000  Level Minneapolis Center
12:01PM 42.5447 -95.5503 89° East 552 635 37,000  Level Minneapolis Center
12:02PM 42.5469 -95.3442 89° East 547 629 37,000  Level Minneapolis Center
12:03PM 42.5481 -95.1375 90° East 546 628 37,000  Level Minneapolis Center
12:05PM 42.5486 -94.8889 90° East 548 631 37,000  Level Minneapolis Center
12:06PM 42.5472 -94.6822 90° East 547 629 37,000  Level Minneapolis Center
12:07PM 42.5481 -94.4731 90° East 545 627 37,000  Level Minneapolis Center
12:08PM 42.5483 -94.2681 90° East 547 629 37,000  Level Minneapolis Center
12:09PM 42.5486 -94.0642 90° East 545 627 37,000  Level Minneapolis Center
12:10PM 42.5469 -93.8606 91° East 546 628 37,000  Level Minneapolis Center
12:11PM 42.5467 -93.6561 90° East 545 627 37,000  Level Minneapolis Center
12:12PM 42.5439 -93.4111 91° East 547 629 37,000  Level Minneapolis Center
12:13PM 42.5417 -93.2036 91° East 551 634 37,000  Level Minneapolis Center
12:14PM 42.5383 -92.9972 91° East 553 636 37,000  Level Minneapolis Center
12:15PM 42.5367 -92.7892 91° East 556 640 37,000  Level Minneapolis Center
12:16PM 42.5333 -92.5811 91° East 557 641 37,000 -60 Level Minneapolis Center
12:17PM 42.5297 -92.3275 91° East 564 649 36,900 -1,260 Descending Minneapolis Center
12:18PM 42.5253 -92.1231 92° East 559 643 34,500 -1,920 Descending Minneapolis Center
12:19PM 42.5236 -91.9311 91° East 533 613 33,000 -1,020 Descending Minneapolis Center
12:20PM 42.5258 -91.7431 89° East 515 593 32,500 -780 Descending Minneapolis Center
12:21PM 42.5264 -91.5125 90° East 520 598 31,400 -1,020 Descending Minneapolis Center
12:22PM 42.5264 -91.3156 90° East 529 609 30,400 -900 Descending Minneapolis Center
12:23PM 42.5264 -91.1189 90° East 530 610 29,500 -1,020 Descending Chicago Center
12:24PM 42.5267 -90.8764 90° East 542 624 28,300 -1,080 Descending Chicago Center
12:25PM 42.5253 -90.6761 90° East 539 620 27,300 -1,020 Descending Chicago Center
12:26PM 42.5244 -90.4781 90° East 533 613 26,300 -1,020 Descending Chicago Center
12:27PM 42.5244 -90.2844 90° East 521 600 25,300 -1,020 Descending Chicago Center
12:28PM 42.5239 -90.0961 90° East 509 586 24,300 -660 Descending Chicago Center
12:29PM 42.5211 -89.9094 91° East 503 579 24,000 -240 Descending Chicago Center
12:30PM 42.5181 -89.6867 91° East 499 574 23,900 -780 Descending Chicago Center
12:31PM 42.5150 -89.5036 91° East 492 566 22,400 -1,860 Descending Chicago Center
12:32PM 42.5133 -89.3314 91° East 467 537 20,100 -2,280 Descending Chicago Center
12:33PM 42.5089 -89.1544 92° East 439 505 17,700 -2,460 Descending Chicago Center
12:35PM 42.5083 -88.9942 90° East 428 493 15,100 -2,520 Descending Chicago Center
12:36PM 42.4808 -88.8447 104° East 410 472 12,500 -2,040 Descending Chicago Center
12:37PM 42.4406 -88.7119 112° Southeast 387 445 11,000 -960 Descending Chicago Center
12:38PM 42.4008 -88.5789 112° Southeast 317 365 10,600 -900 Descending Chicago Center
12:39PM 42.3681 -88.4739 113° Southeast 308 354 9,200 -1,380 Descending Chicago Center
12:40PM 42.3356 -88.3744 114° Southeast 296 341 7,800 -1,440 Descending Chicago Center
12:41PM 42.2622 -88.3575 170° South 277 319 6,300 -1,380 Descending Chicago Center
12:42PM 42.1897 -88.3583 180° South 268 308 5,000 -1,140 Descending Chicago Center
12:43PM 42.1236 -88.3914 200° South 261 300 4,000 -540 Descending Chicago Center
12:44PM 42.0433 -88.3961 183° South 251 289 4,000  Level Chicago Center
12:45PM 42.0069 -88.3389 131° Southeast 239 275 4,000  Level Chicago Center
12:46PM 42.0019 -88.2678 95° East 213 245 4,100  Climbing Chicago Center
12:47PM 42.0031 -88.2006 89° East 193 222 4,100 -300 Level Chicago Center
12:48PM 42.0019 -88.1306 91° East 186 214 3,600 -780 Descending Chicago Center
12:49PM 42.0000 -88.0833 93° East 184 212 2,900 -1,020 Descending Chicago TRACON
12:50PM 42.0000 -88.0167 90° East 168 193 2,000 -900 Descending Chicago TRACON
12:51PM 42.0000 -87.9667 90° East 130 150 1,200 -840 Descending Chicago TRACON